Time;durP1;ratioP1;P1;durP2;ratioP2;P2;SDS_P1;SDS_P2;PMS_P1;PMS_P2;Temp;Humidity;BMP_temperature;BMP_pressure;BME280_temperature;BME280_humidity;BME280_pressure;Samples;Min_cycle;Max_cycle;Signal;HPM_P1;HPM_P2
2023/12/28 00:03:40;;;;;;;;;;;;;;;-1.66;100.00;99695.85;435039;1251;126483;-60
2023/12/28 00:13:45;;;;;;;;;;;;;;;-1.70;100.00;99686.63;435671;1254;126878;-59
2023/12/28 00:23:49;;;;;;;;;;;;;;;-1.64;100.00;99664.41;436007;1254;127177;-60
2023/12/28 00:33:54;;;;;;;;;;;;;;;-1.59;100.00;99644.95;437098;1251;126643;-61
2023/12/28 00:43:58;;;;;;;;;;;;;;;-1.58;100.00;99615.05;435317;1255;126372;-61
2023/12/28 00:54:03;;;;;;;;;;;;;;;-1.56;100.00;99598.38;435297;1250;127433;-60
2023/12/28 01:04:07;;;;;;;;;;;;;;;-1.54;100.00;99583.24;434956;1254;126111;-59
2023/12/28 01:14:11;;;;;;;;;;;;;;;-1.49;100.00;99570.13;434937;1253;126027;-59
2023/12/28 01:24:16;;;;;;;;;;;;;;;-1.44;100.00;99553.39;435001;1253;126079;-60
2023/12/28 01:34:20;;;;;;;;;;;;;;;-1.39;100.00;99535.96;434747;1254;126584;-60
2023/12/28 01:44:24;;;;;;;;;;;;;;;-1.31;100.00;99528.11;435062;1256;126107;-60
2023/12/28 01:54:29;;;;;;;;;;;;;;;-1.23;100.00;99525.75;435471;1255;126149;-60
2023/12/28 02:04:34;;;;;;;;;;;;;;;-1.14;100.00;99524.91;435013;1253;126715;-60
2023/12/28 02:14:39;;;;;;;;;;;;;;;-1.08;100.00;99507.48;434706;1255;126990;-60
2023/12/28 02:25:00;;;;;;;;;;;;;;;-1.05;100.00;99480.27;434814;1255;126234;-62
2023/12/28 02:35:10;;;;;;;;;;;;;;;-1.04;100.00;99465.13;434532;1253;126242;-59
2023/12/28 02:45:14;;;;;;;;;;;;;;;-1.01;100.00;99441.54;437506;1250;126789;-59
2023/12/28 02:55:19;;;;;;;;;;;;;;;-0.93;100.00;99432.79;435077;1253;127143;-59
2023/12/28 03:05:24;;;;;;;;;;;;;;;-0.88;100.00;99425.65;436266;1254;126068;-60
2023/12/28 03:15:28;;;;;;;;;;;;;;;-0.82;100.00;99417.97;434799;1256;126557;-60
2023/12/28 03:25:33;;;;;;;;;;;;;;;-0.75;100.00;99406.65;434972;1254;127923;-60
2023/12/28 03:35:37;;;;;;;;;;;;;;;-0.69;100.00;99405.15;435378;1256;126359;-60
2023/12/28 03:45:42;;;;;;;;;;;;;;;-0.63;100.00;99392.99;435050;1250;126644;-61
2023/12/28 03:55:46;;;;;;;;;;;;;;;-0.57;100.00;99379.79;435406;1251;126256;-60
2023/12/28 04:05:51;;;;;;;;;;;;;;;-0.55;100.00;99375.11;435481;1254;127324;-61
2023/12/28 04:15:56;;;;;;;;;;;;;;;-0.58;100.00;99353.67;436972;1254;128646;-61
2023/12/28 04:26:00;;;;;;;;;;;;;;;-0.59;100.00;99328.60;437609;1254;126186;-59
2023/12/28 04:36:06;;;;;;;;;;;;;;;-0.60;100.00;99312.98;434813;1254;126319;-60
2023/12/28 04:46:11;;;;;;;;;;;;;;;-0.61;100.00;99281.88;436140;1254;126023;-61
2023/12/28 04:56:18;;;;;;;;;;;;;;;-0.65;100.00;99276.29;434820;1251;126520;-60
2023/12/28 05:06:23;;;;;;;;;;;;;;;-0.68;100.00;99267.43;434985;1251;127351;-60
2023/12/28 05:16:27;;;;;;;;;;;;;;;-0.65;100.00;99256.02;434911;1256;126535;-61
2023/12/28 05:26:32;;;;;;;;;;;;;;;-0.59;100.00;99237.64;435009;1254;127767;-59
2023/12/28 05:36:37;;;;;;;;;;;;;;;-0.54;100.00;99210.19;436163;1256;126849;-59
2023/12/28 05:46:42;;;;;;;;;;;;;;;-0.49;100.00;99222.46;436303;1255;126590;-60
2023/12/28 05:56:46;;;;;;;;;;;;;;;-0.46;100.00;99222.02;437865;1255;126702;-60
2023/12/28 06:06:51;;;;;;;;;;;;;;;-0.36;100.00;99219.55;437626;1254;131744;-59
2023/12/28 06:16:55;;;;;;;;;;;;;;;-0.32;100.00;99211.21;435792;1256;126623;-60
2023/12/28 06:27:01;;;;;;;;;;;;;;;-0.32;100.00;99221.70;435791;1256;126717;-59
2023/12/28 06:37:05;;;;;;;;;;;;;;;-0.31;100.00;99229.55;436032;1255;126079;-61
2023/12/28 06:47:09;;;;;;;;;;;;;;;-0.25;100.00;99241.46;435679;1255;127205;-61
2023/12/28 06:57:14;;;;;;;;;;;;;;;-0.10;100.00;99244.88;435997;1255;127287;-64
2023/12/28 07:07:18;;;;;;;;;;;;;;;0.19;100.00;99248.24;435613;1255;127164;-68
2023/12/28 07:17:23;;;;;;;;;;;;;;;0.64;100.00;99221.88;435814;1254;125863;-67
2023/12/28 07:27:27;;;;;;;;;;;;;;;1.28;100.00;99217.00;435588;1256;125986;-69
2023/12/28 07:37:32;;;;;;;;;;;;;;;2.23;100.00;99245.95;435900;1254;125785;-63
2023/12/28 07:47:36;;;;;;;;;;;;;;;3.23;100.00;99264.08;435666;1256;125902;-70
2023/12/28 07:57:41;;;;;;;;;;;;;;;4.62;100.00;99252.20;435570;1255;126125;-64
2023/12/28 08:07:46;;;;;;;;;;;;;;;7.63;100.00;99241.42;435942;1251;126537;-66
2023/12/28 08:17:50;;;;;;;;;;;;;;;10.56;100.00;99253.34;436180;1254;126406;-62
2023/12/28 08:27:55;;;;;;;;;;;;;;;9.79;100.00;99268.84;436349;1251;126922;-65
2023/12/28 08:38:00;;;;;;;;;;;;;;;8.17;100.00;99277.73;435494;1254;126063;-67
2023/12/28 08:48:06;;;;;;;;;;;;;;;7.09;100.00;99279.45;435667;1254;126647;-63
2023/12/28 08:58:11;;;;;;;;;;;;;;;6.61;100.00;99289.13;436171;1254;126821;-63
2023/12/28 09:08:15;;;;;;;;;;;;;;;6.28;100.00;99311.14;435681;1251;126670;-62
2023/12/28 09:18:20;;;;;;;;;;;;;;;6.08;100.00;99311.98;435751;1254;126083;-67
2023/12/28 09:28:24;;;;;;;;;;;;;;;5.81;100.00;99300.75;435500;1251;126078;-64
2023/12/28 09:38:29;;;;;;;;;;;;;;;5.68;100.00;99297.55;435537;1254;126854;-65
2023/12/28 09:48:34;;;;;;;;;;;;;;;5.60;100.00;99299.48;436178;1251;125890;-70
2023/12/28 09:58:39;;;;;;;;;;;;;;;5.56;100.00;99291.34;435299;1254;125922;-63
2023/12/28 10:08:47;;;;;;;;;;;;;;;5.63;100.00;99288.95;435465;1254;126171;-62
2023/12/28 10:18:52;;;;;;;;;;;;;;;5.81;100.00;99287.87;436768;1251;126544;-66
2023/12/28 10:29:00;;;;;;;;;;;;;;;5.93;100.00;99282.09;436805;1254;127297;-68
2023/12/28 10:39:06;;;;;;;;;;;;;;;6.06;100.00;99258.88;436091;1254;126549;-60
2023/12/28 10:49:13;;;;;;;;;;;;;;;6.26;100.00;99273.00;435960;1251;126064;-61
2023/12/28 10:59:25;;;;;;;;;;;;;;;6.35;100.00;99278.96;438178;1251;126009;-63
2023/12/28 11:09:30;;;;;;;;;;;;;;;6.32;100.00;99277.02;436120;1251;125986;-60
2023/12/28 11:19:36;;;;;;;;;;;;;;;6.30;100.00;99288.98;435313;1251;125840;-66
2023/12/28 11:29:42;;;;;;;;;;;;;;;6.30;100.00;99281.98;435957;1251;126212;-64
2023/12/28 11:39:46;;;;;;;;;;;;;;;6.30;100.00;99272.98;434935;1251;126512;-64
2023/12/28 11:49:51;;;;;;;;;;;;;;;6.35;100.00;99259.19;435345;1251;125889;-65
2023/12/28 11:59:57;;;;;;;;;;;;;;;6.42;100.00;99250.46;436206;1251;126492;-63
2023/12/28 12:10:01;;;;;;;;;;;;;;;6.46;100.00;99245.58;436573;1251;125991;-61
2023/12/28 12:20:09;;;;;;;;;;;;;;;6.61;100.00;99236.21;435312;1254;126308;-62
2023/12/28 12:30:14;;;;;;;;;;;;;;;6.78;100.00;99235.52;436742;1251;126184;-68
2023/12/28 12:40:21;;;;;;;;;;;;;;;6.88;100.00;99235.16;435302;1254;126384;-61
2023/12/28 12:50:27;;;;;;;;;;;;;;;6.94;100.00;99229.25;438022;1251;126701;-62
2023/12/28 13:00:31;;;;;;;;;;;;;;;7.01;100.00;99226.63;435468;1253;125674;-63
2023/12/28 13:10:36;;;;;;;;;;;;;;;7.05;100.00;99226.79;438458;1250;126730;-67
2023/12/28 13:20:42;;;;;;;;;;;;;;;7.00;100.00;99220.42;435481;1254;126932;-64
2023/12/28 13:30:47;;;;;;;;;;;;;;;6.92;100.00;99221.58;435237;1251;126110;-68
2023/12/28 13:40:51;;;;;;;;;;;;;;;6.84;100.00;99230.52;435454;1254;126642;-66
2023/12/28 13:50:56;;;;;;;;;;;;;;;6.78;100.00;99250.13;437474;1254;125809;-65
2023/12/28 14:01:00;;;;;;;;;;;;;;;6.74;100.00;99256.60;435038;1251;126322;-63
2023/12/28 14:11:05;;;;;;;;;;;;;;;6.68;100.00;99257.25;435879;1251;126881;-68
2023/12/28 14:21:12;;;;;;;;;;;;;;;6.52;100.00;99261.74;435470;1251;125938;-67
2023/12/28 14:31:18;;;;;;;;;;;;;;;6.21;99.93;99262.82;435931;1251;126107;-61
2023/12/28 14:41:22;;;;;;;;;;;;;;;5.81;99.98;99271.89;436930;1251;126374;-64
2023/12/28 14:51:27;;;;;;;;;;;;;;;5.41;100.00;99283.04;435534;1254;125523;-62
2023/12/28 15:01:32;;;;;;;;;;;;;;;5.04;100.00;99280.23;435199;1254;125834;-62
2023/12/28 15:11:38;;;;;;;;;;;;;;;4.72;100.00;99267.23;435024;1253;126008;-68
2023/12/28 15:21:52;;;;;;;;;;;;;;;4.52;100.00;99258.09;435327;1253;126649;-69
2023/12/28 15:31:57;;;;;;;;;;;;;;;4.36;100.00;99252.55;437443;1254;126699;-59
2023/12/28 15:42:01;;;;;;;;;;;;;;;4.18;100.00;99255.40;435203;1254;126577;-60
2023/12/28 15:52:06;;;;;;;;;;;;;;;3.95;100.00;99252.39;435279;1250;126463;-61
2023/12/28 16:02:10;;;;;;;;;;;;;;;3.71;100.00;99251.44;436533;1254;125858;-62
2023/12/28 16:12:16;;;;;;;;;;;;;;;3.55;100.00;99247.29;436396;1251;182128;-60
2023/12/28 16:22:21;;;;;;;;;;;;;;;3.36;100.00;99238.64;435324;1250;125671;-60
2023/12/28 16:32:25;;;;;;;;;;;;;;;3.23;100.00;99248.69;436867;1251;125685;-61
2023/12/28 16:42:30;;;;;;;;;;;;;;;3.10;100.00;99254.20;436864;1251;126728;-61
2023/12/28 16:52:35;;;;;;;;;;;;;;;3.05;100.00;99254.41;436767;1250;126638;-61
2023/12/28 17:02:39;;;;;;;;;;;;;;;3.00;100.00;99257.73;435879;1254;127227;-59
2023/12/28 17:12:44;;;;;;;;;;;;;;;2.90;100.00;99260.33;435519;1254;125973;-60
2023/12/28 17:22:51;;;;;;;;;;;;;;;2.76;100.00;99265.84;435289;1250;126294;-60
2023/12/28 17:32:58;;;;;;;;;;;;;;;2.59;100.00;99274.76;434898;1250;126126;-61
2023/12/28 17:43:07;;;;;;;;;;;;;;;2.45;100.00;99268.19;435596;1251;125987;-60
2023/12/28 17:53:12;;;;;;;;;;;;;;;2.35;100.00;99270.42;435519;1250;126631;-60
2023/12/28 18:03:16;;;;;;;;;;;;;;;2.26;100.00;99280.09;437948;1250;126107;-60
2023/12/28 18:13:21;;;;;;;;;;;;;;;2.12;100.00;99278.66;435310;1250;125777;-60
2023/12/28 18:23:25;;;;;;;;;;;;;;;1.98;100.00;99280.33;435192;1253;126113;-61
2023/12/28 18:33:29;;;;;;;;;;;;;;;1.83;100.00;99287.73;435300;1254;125699;-61
2023/12/28 18:43:34;;;;;;;;;;;;;;;1.68;100.00;99288.38;437593;1251;126393;-60
2023/12/28 18:53:41;;;;;;;;;;;;;;;1.55;100.00;99286.19;435159;1251;125806;-61
2023/12/28 19:03:46;;;;;;;;;;;;;;;1.48;100.00;99281.07;435372;1253;126198;-60
2023/12/28 19:13:51;;;;;;;;;;;;;;;1.54;100.00;99279.83;435618;1253;126528;-61
2023/12/28 19:23:56;;;;;;;;;;;;;;;1.64;100.00;99277.29;435501;1255;125666;-61
2023/12/28 19:34:00;;;;;;;;;;;;;;;1.69;100.00;99281.77;435085;1254;126679;-61
2023/12/28 19:44:05;;;;;;;;;;;;;;;1.75;100.00;99274.37;438085;1254;126724;-61
2023/12/28 19:54:09;;;;;;;;;;;;;;;1.75;100.00;99286.42;435326;1255;128417;-67
2023/12/28 20:04:14;;;;;;;;;;;;;;;1.78;100.00;99288.92;436477;1254;126079;-66
2023/12/28 20:14:19;;;;;;;;;;;;;;;1.83;100.00;99278.04;437530;1250;126043;-64
2023/12/28 20:24:23;;;;;;;;;;;;;;;1.94;100.00;99271.30;435713;1250;125860;-65
2023/12/28 20:34:28;;;;;;;;;;;;;;;2.05;100.00;99264.89;435599;1255;127452;-64
2023/12/28 20:44:33;;;;;;;;;;;;;;;2.12;100.00;99256.52;435311;1250;125927;-66
2023/12/28 20:54:37;;;;;;;;;;;;;;;2.16;100.00;99254.35;436122;1254;125586;-66
2023/12/28 21:04:42;;;;;;;;;;;;;;;2.20;100.00;99255.89;435666;1251;125894;-65
2023/12/28 21:14:47;;;;;;;;;;;;;;;2.26;100.00;99254.00;434938;1254;125746;-66
2023/12/28 21:24:51;;;;;;;;;;;;;;;2.24;100.00;99251.80;434821;1250;127134;-65
2023/12/28 21:34:56;;;;;;;;;;;;;;;2.24;100.00;99238.17;434915;1253;125876;-66
2023/12/28 21:45:00;;;;;;;;;;;;;;;2.23;100.00;99237.83;435042;1251;126843;-67
2023/12/28 21:55:08;;;;;;;;;;;;;;;2.23;100.00;99237.48;435232;1255;125865;-65
2023/12/28 22:05:13;;;;;;;;;;;;;;;2.28;100.00;99241.30;436422;1250;125772;-65
2023/12/28 22:15:17;;;;;;;;;;;;;;;2.32;100.00;99238.93;435025;1256;127080;-65
2023/12/28 22:25:21;;;;;;;;;;;;;;;2.31;100.00;99229.98;435981;1251;126103;-65
2023/12/28 22:35:26;;;;;;;;;;;;;;;2.27;100.00;99235.31;435645;1251;127036;-65
2023/12/28 22:45:31;;;;;;;;;;;;;;;2.22;100.00;99235.30;435418;1250;126231;-65
2023/12/28 22:55:35;;;;;;;;;;;;;;;2.15;100.00;99231.58;436254;1250;125404;-68
2023/12/28 23:05:40;;;;;;;;;;;;;;;2.06;100.00;99228.77;435265;1253;127313;-65
2023/12/28 23:15:44;;;;;;;;;;;;;;;1.97;100.00;99221.48;435362;1256;127077;-66
2023/12/28 23:25:49;;;;;;;;;;;;;;;1.91;100.00;99224.13;439430;1253;126499;-65
2023/12/28 23:35:53;;;;;;;;;;;;;;;1.84;100.00;99220.89;435313;1254;126548;-64
2023/12/28 23:45:58;;;;;;;;;;;;;;;1.80;100.00;99203.93;435865;1256;129279;-64
2023/12/28 23:56:03;;;;;;;;;;;;;;;1.83;100.00;99201.92;435092;1256;126265;-63
